createdAt,value
2023-03-21T00:03:21.584Z,11.20
2023-03-21T00:13:23.220Z,11.20
2023-03-21T00:23:26.755Z,11.30
2023-03-21T00:33:28.815Z,11.20
2023-03-21T00:43:30.427Z,11.20
2023-03-21T00:53:32.080Z,11.20
2023-03-21T01:03:42.461Z,11.10
2023-03-21T01:13:53.735Z,11.00
2023-03-21T01:23:59.710Z,10.90
2023-03-21T01:34:01.346Z,10.80
2023-03-21T01:44:04.115Z,10.80
2023-03-21T01:54:08.060Z,10.60
2023-03-21T02:04:10.852Z,10.50
2023-03-21T02:14:28.466Z,10.60
2023-03-21T02:25:01.220Z,10.50
2023-03-21T02:35:39.103Z,10.10
2023-03-21T02:46:10.255Z,9.90
2023-03-21T02:56:12.464Z,9.80
2023-03-21T03:06:48.550Z,9.60
2023-03-21T03:17:40.061Z,9.50
2023-03-21T03:27:44.669Z,9.40
2023-03-21T03:37:51.310Z,9.20
2023-03-21T03:48:14.079Z,9.00
2023-03-21T03:58:23.610Z,8.90
2023-03-21T04:08:26.356Z,8.80
2023-03-21T04:18:28.065Z,8.80
2023-03-21T04:28:29.719Z,8.70
2023-03-21T04:38:31.387Z,8.60
2023-03-21T04:48:32.985Z,8.70
2023-03-21T04:58:34.685Z,8.80
2023-03-21T05:08:36.851Z,8.80
2023-03-21T05:18:38.719Z,8.80
2023-03-21T05:28:40.384Z,8.90
2023-03-21T05:38:45.515Z,8.80
2023-03-21T05:48:47.140Z,8.70
2023-03-21T05:58:48.749Z,8.80
2023-03-21T06:08:50.477Z,9.00
2023-03-21T06:18:52.129Z,9.00
2023-03-21T06:28:53.869Z,9.00
2023-03-21T06:38:55.464Z,9.10
2023-03-21T06:48:57.106Z,9.20
2023-03-21T06:58:58.880Z,9.20
2023-03-21T07:09:00.617Z,10.10
2023-03-21T07:19:02.230Z,10.50
2023-03-21T07:29:04.376Z,10.90
2023-03-21T07:39:06.323Z,11.40
2023-03-21T07:49:08.918Z,12.00
2023-03-21T07:59:10.770Z,12.10
2023-03-21T08:09:12.446Z,12.20
2023-03-21T08:19:14.119Z,12.40
2023-03-21T08:29:16.124Z,12.90
2023-03-21T08:39:17.860Z,13.40
2023-03-21T08:49:19.672Z,13.50
2023-03-21T08:59:21.439Z,13.50
2023-03-21T09:09:23.116Z,13.60
2023-03-21T09:19:25.719Z,13.70
2023-03-21T09:29:27.528Z,13.80
2023-03-21T09:42:30.856Z,14.00
2023-03-21T09:52:59.366Z,14.30
2023-03-21T10:03:06.776Z,14.80
2023-03-21T10:13:15.776Z,14.90
2023-03-21T10:23:20.913Z,15.30
2023-03-21T10:33:26.306Z,15.40
2023-03-21T10:46:36.007Z,15.80
2023-03-21T10:56:54.695Z,15.90
2023-03-21T11:07:02.295Z,16.30
2023-03-21T11:17:19.165Z,16.70
2023-03-21T11:27:21.168Z,16.60
2023-03-21T11:37:32.032Z,16.50
2023-03-21T11:47:33.651Z,16.60
2023-03-21T11:57:51.898Z,16.70
2023-03-21T12:08:20.764Z,16.90
2023-03-21T12:18:45.840Z,17.10
2023-03-21T12:28:50.863Z,17.10
2023-03-21T12:39:18.670Z,17.00
2023-03-21T12:49:29.120Z,16.90
2023-03-21T12:59:43.288Z,16.90
2023-03-21T13:09:44.992Z,16.90
2023-03-21T13:20:20.026Z,16.80
2023-03-21T13:34:13.807Z,16.70
2023-03-21T13:44:41.318Z,16.70
2023-03-21T13:54:55.966Z,16.60
2023-03-21T14:05:06.264Z,16.40
2023-03-21T14:15:31.117Z,16.00
2023-03-21T14:33:39.149Z,15.50
2023-03-21T14:43:43.556Z,15.10
2023-03-21T14:53:46.054Z,15.10
2023-03-21T15:03:51.474Z,14.50
2023-03-21T15:13:55.058Z,14.50
2023-03-21T15:24:03.873Z,14.20
2023-03-21T15:34:06.253Z,14.00
2023-03-21T15:44:15.041Z,13.90
2023-03-21T15:54:23.859Z,13.60
2023-03-21T16:04:26.561Z,13.50
2023-03-21T16:14:29.135Z,13.50
2023-03-21T16:24:30.715Z,13.50
2023-03-21T16:34:32.521Z,13.30
2023-03-21T16:44:35.678Z,13.30
2023-03-21T16:54:38.718Z,13.20
2023-03-21T17:04:40.516Z,13.10
2023-03-21T17:14:43.982Z,12.90
2023-03-21T17:24:48.471Z,12.80
2023-03-21T17:34:53.077Z,12.90
2023-03-21T17:44:54.668Z,12.80
2023-03-21T17:54:56.301Z,12.80
2023-03-21T18:04:58.025Z,12.60
2023-03-21T18:14:59.729Z,12.60
2023-03-21T18:25:01.341Z,12.60
2023-03-21T18:35:04.414Z,12.60
2023-03-21T18:45:08.311Z,12.60
2023-03-21T18:55:10.534Z,12.50
2023-03-21T19:05:12.407Z,12.40
2023-03-21T19:15:17.817Z,12.20
2023-03-21T19:25:19.579Z,12.10
2023-03-21T19:35:21.792Z,11.60
2023-03-21T19:45:23.628Z,11.90
2023-03-21T19:55:25.786Z,11.80
2023-03-21T20:05:28.398Z,11.60
2023-03-21T20:15:30.786Z,11.50
2023-03-21T20:25:33.649Z,11.50
2023-03-21T20:36:28.696Z,11.20
2023-03-21T20:46:03.781Z,11.10
2023-03-21T20:56:06.519Z,11.00
2023-03-21T21:06:14.775Z,10.80
2023-03-21T21:16:17.004Z,10.70
2023-03-21T21:26:18.806Z,10.50
2023-03-21T21:36:22.504Z,10.50
2023-03-21T21:46:24.183Z,10.20
2023-03-21T21:56:32.076Z,10.20
2023-03-21T22:06:34.583Z,10.10
2023-03-21T22:16:36.338Z,9.90
2023-03-21T22:26:39.464Z,9.90
2023-03-21T22:36:46.841Z,9.70
2023-03-21T22:46:48.450Z,9.50
2023-03-21T22:56:50.242Z,9.40
2023-03-21T23:06:51.883Z,9.20
2023-03-21T23:16:53.792Z,9.20
2023-03-21T23:26:55.460Z,9.10
2023-03-21T23:36:57.206Z,9.10
2023-03-21T23:46:58.833Z,9.00
2023-03-21T23:57:00.671Z,9.00
